Arklow Mill — EIJD9 — position and weather

sailwx.info

Track history (hours):
 
Tides and Currents Weather Stations Pressure Air Temp Water Temp Dewpoint Dewpoint Depression Visibility Wind Speed Wind Dir Waves Ship Positions

Arklow Mill

Last reported at 2015-Mar-01 10:33 UTC. Time now 2015-Mar-01 10:57 UTC.
Position N 51°20' E 002°08'.

Length 137 m; draft 8.4 m.

Type: Ship. MMSI: 250002022.

Date/timePositionNaut miles runAvg speedWind from/ knotsBaromVisibWave heightAir tempDewpointWater temp
2015-Mar-01 10:33N 51°20' E 002°08'1212.3
2015-Mar-01 09:33N 51°11' E 001°55'1614.2
2015-Mar-01 08:26N 51°02' E 001°35'11310.2
2015-Feb-28 21:22N 50°26' W 001°14'7412.0
2015-Feb-28 15:11N 50°10' W 003°07'239 9.7
2015-Feb-27 14:34N 51°08' W 009°13'1111.2
2015-Feb-27 13:34N 51°12' W 009°30'1010.1
2015-Feb-27 12:33N 51°18' W 009°43'1010.2
2015-Feb-27 11:34N 51°23' W 009°57'1110.6
2015-Feb-27 10:33N 51°29' W 010°12'1210.4
2015-Feb-27 09:23N 51°37' W 010°26'18 9.6
2015-Feb-27 07:31N 51°52' W 010°42'12 9.2
2015-Feb-27 06:11N 52°04' W 010°45'5 7.8
2015-Feb-27 05:32N 52°08' W 010°40'8 8.3
2015-Feb-27 04:32N 52°13' W 010°29'10 7.9
2015-Feb-27 03:19N 52°19' W 010°17'6 7.8
2015-Feb-27 02:33N 52°22' W 010°09'8 7.8
2015-Feb-27 01:33N 52°27' W 009°58'8 8.2
2015-Feb-27 00:33N 52°31' W 009°47'  
2015-Feb-24 15:33N 52°33' W 009°45'1211.6
2015-Feb-24 14:33N 52°27' W 010°02'1211.4
2015-Feb-24 13:32N 52°21' W 010°18'1111.2
2015-Feb-24 12:33N 52°15' W 010°33'1110.9
2015-Feb-24 11:33N 52°09' W 010°47'9 7.8
2015-Feb-24 10:25N 52°02' W 010°56'6 7.4
2015-Feb-24 09:33N 51°55' W 010°53'8 7.0
2015-Feb-24 08:27N 51°48' W 010°51'6 6.6
2015-Feb-24 07:30N 51°42' W 010°49'12 5.8
2015-Feb-24 05:24N 51°29' W 010°47'  
2015-Feb-20 17:06N 39°09' W 009°52'712.6
2015-Feb-20 16:33N 39°02' W 009°52'1413.6
2015-Feb-20 15:33N 38°49' W 009°51'1414.2
2015-Feb-20 14:33N 38°35' W 009°49'1513.9
2015-Feb-20 13:30N 38°21' W 009°45'1414.2
2015-Feb-20 12:33N 38°07' W 009°41'1414.3
2015-Feb-20 11:33N 37°53' W 009°37'1514.5
2015-Feb-20 10:33N 37°39' W 009°33'1414.3
2015-Feb-20 09:33N 37°25' W 009°29'1414.1
2015-Feb-20 08:33N 37°11' W 009°26'3912.8
2015-Feb-20 05:29N 36°40' W 008°56'1314.1
2015-Feb-20 04:33N 36°36' W 008°41'1414.1
2015-Feb-20 03:34N 36°32' W 008°24'1714.6
2015-Feb-20 02:23N 36°27' W 008°03'12814.6
2015-Feb-19 17:33N 35°60' W 005°28'1514.5
2015-Feb-19 16:33N 36°07' W 005°12'  
Track history (hours):
 
Tides and Currents Weather Stations Pressure Air Temp Water Temp Dewpoint Dewpoint Depression Visibility Wind Speed Wind Dir Waves Ship Positions

Arklow Mill

Last reported at 2015-Mar-01 10:33 UTC. Time now 2015-Mar-01 10:57 UTC.
Position N 51°20' E 002°08'.

Length 137 m; draft 8.4 m.

Type: Ship. MMSI: 250002022.

Date/timePositionNaut miles runAvg speedWind from/ knotsBaromVisibWave heightAir tempDewpointWater temp
2015-Mar-01 10:33N 51°20' E 002°08'1212.3
2015-Mar-01 09:33N 51°11' E 001°55'1614.2
2015-Mar-01 08:26N 51°02' E 001°35'11310.2
2015-Feb-28 21:22N 50°26' W 001°14'7412.0
2015-Feb-28 15:11N 50°10' W 003°07'239 9.7
2015-Feb-27 14:34N 51°08' W 009°13'1111.2
2015-Feb-27 13:34N 51°12' W 009°30'1010.1
2015-Feb-27 12:33N 51°18' W 009°43'1010.2
2015-Feb-27 11:34N 51°23' W 009°57'1110.6
2015-Feb-27 10:33N 51°29' W 010°12'1210.4
2015-Feb-27 09:23N 51°37' W 010°26'18 9.6
2015-Feb-27 07:31N 51°52' W 010°42'12 9.2
2015-Feb-27 06:11N 52°04' W 010°45'5 7.8
2015-Feb-27 05:32N 52°08' W 010°40'8 8.3
2015-Feb-27 04:32N 52°13' W 010°29'10 7.9
2015-Feb-27 03:19N 52°19' W 010°17'6 7.8
2015-Feb-27 02:33N 52°22' W 010°09'8 7.8
2015-Feb-27 01:33N 52°27' W 009°58'8 8.2
2015-Feb-27 00:33N 52°31' W 009°47'  
2015-Feb-24 15:33N 52°33' W 009°45'1211.6
2015-Feb-24 14:33N 52°27' W 010°02'1211.4
2015-Feb-24 13:32N 52°21' W 010°18'1111.2
2015-Feb-24 12:33N 52°15' W 010°33'1110.9
2015-Feb-24 11:33N 52°09' W 010°47'9 7.8
2015-Feb-24 10:25N 52°02' W 010°56'6 7.4
2015-Feb-24 09:33N 51°55' W 010°53'8 7.0
2015-Feb-24 08:27N 51°48' W 010°51'6 6.6
2015-Feb-24 07:30N 51°42' W 010°49'12 5.8
2015-Feb-24 05:24N 51°29' W 010°47'  
2015-Feb-20 17:06N 39°09' W 009°52'712.6
2015-Feb-20 16:33N 39°02' W 009°52'1413.6
2015-Feb-20 15:33N 38°49' W 009°51'1414.2
2015-Feb-20 14:33N 38°35' W 009°49'1513.9
2015-Feb-20 13:30N 38°21' W 009°45'1414.2
2015-Feb-20 12:33N 38°07' W 009°41'1414.3
2015-Feb-20 11:33N 37°53' W 009°37'1514.5
2015-Feb-20 10:33N 37°39' W 009°33'1414.3
2015-Feb-20 09:33N 37°25' W 009°29'1414.1
2015-Feb-20 08:33N 37°11' W 009°26'3912.8
2015-Feb-20 05:29N 36°40' W 008°56'1314.1
2015-Feb-20 04:33N 36°36' W 008°41'1414.1
2015-Feb-20 03:34N 36°32' W 008°24'1714.6
2015-Feb-20 02:23N 36°27' W 008°03'12814.6
2015-Feb-19 17:33N 35°60' W 005°28'1514.5
2015-Feb-19 16:33N 36°07' W 005°12'  

Dump ship's entire track history